sensor_id;sensor_type;location;lat;lon;timestamp;P1;durP1;ratioP1;P2;durP2;ratioP2
50591;SDS011;36548;50.506;30.834;2023-04-01T00:00:41;21.58;;;19.12;;
50591;SDS011;36548;50.506;30.834;2023-04-01T00:01:51;23.30;;;19.20;;
50591;SDS011;36548;50.506;30.834;2023-04-01T00:03:08;21.65;;;19.35;;
50591;SDS011;36548;50.506;30.834;2023-04-01T00:04:18;26.10;;;21.17;;
50591;SDS011;36548;50.506;30.834;2023-04-01T00:05:33;21.42;;;18.70;;
50591;SDS011;36548;50.506;30.834;2023-04-01T00:06:43;22.57;;;18.45;;
50591;SDS011;36548;50.506;30.834;2023-04-01T00:07:59;24.03;;;19.92;;
50591;SDS011;36548;50.506;30.834;2023-04-01T00:09:09;20.73;;;18.53;;
50591;SDS011;36548;50.506;30.834;2023-04-01T00:10:18;23.53;;;19.43;;
50591;SDS011;36548;50.506;30.834;2023-04-01T00:11:34;24.48;;;19.30;;
50591;SDS011;36548;50.506;30.834;2023-04-01T00:12:43;20.33;;;18.03;;
50591;SDS011;36548;50.506;30.834;2023-04-01T00:13:58;21.45;;;19.03;;
50591;SDS011;36548;50.506;30.834;2023-04-01T00:15:09;21.55;;;18.57;;
50591;SDS011;36548;50.506;30.834;2023-04-01T00:16:27;20.27;;;18.18;;
50591;SDS011;36548;50.506;30.834;2023-04-01T00:17:37;22.15;;;19.55;;
50591;SDS011;36548;50.506;30.834;2023-04-01T00:18:53;22.05;;;18.30;;
50591;SDS011;36548;50.506;30.834;2023-04-01T00:21:20;21.27;;;18.55;;
50591;SDS011;36548;50.506;30.834;2023-04-01T00:22:31;21.75;;;18.93;;
50591;SDS011;36548;50.506;30.834;2023-04-01T00:23:47;20.37;;;17.37;;
50591;SDS011;36548;50.506;30.834;2023-04-01T00:24:56;22.27;;;18.93;;
50591;SDS011;36548;50.506;30.834;2023-04-01T00:26:14;21.67;;;18.52;;
50591;SDS011;36548;50.506;30.834;2023-04-01T00:27:26;21.02;;;18.75;;
50591;SDS011;36548;50.506;30.834;2023-04-01T00:28:42;21.90;;;18.18;;
50591;SDS011;36548;50.506;30.834;2023-04-01T00:29:52;21.62;;;18.25;;
50591;SDS011;36548;50.506;30.834;2023-04-01T00:31:07;21.37;;;17.38;;
50591;SDS011;36548;50.506;30.834;2023-04-01T00:32:19;20.53;;;17.53;;
50591;SDS011;36548;50.506;30.834;2023-04-01T00:33:36;22.55;;;18.45;;
50591;SDS011;36548;50.506;30.834;2023-04-01T00:34:49;21.12;;;18.47;;
50591;SDS011;36548;50.506;30.834;2023-04-01T00:36:11;23.33;;;19.75;;
50591;SDS011;36548;50.506;30.834;2023-04-01T00:37:23;20.10;;;17.50;;
50591;SDS011;36548;50.506;30.834;2023-04-01T00:38:39;21.47;;;17.77;;
50591;SDS011;36548;50.506;30.834;2023-04-01T00:39:50;19.30;;;17.07;;
50591;SDS011;36548;50.506;30.834;2023-04-01T01:41:53;21.28;;;18.98;;
50591;SDS011;36548;50.506;30.834;2023-04-01T01:43:09;23.43;;;20.55;;
50591;SDS011;36548;50.506;30.834;2023-04-01T01:44:28;24.13;;;21.58;;
50591;SDS011;36548;50.506;30.834;2023-04-01T01:45:43;25.00;;;22.35;;
50591;SDS011;36548;50.506;30.834;2023-04-01T01:47:00;27.78;;;24.65;;
50591;SDS011;36548;50.506;30.834;2023-04-01T01:48:11;26.10;;;23.38;;
50591;SDS011;36548;50.506;30.834;2023-04-01T01:49:21;21.53;;;19.08;;
50591;SDS011;36548;50.506;30.834;2023-04-01T01:50:38;23.72;;;19.55;;
50591;SDS011;36548;50.506;30.834;2023-04-01T01:51:51;24.85;;;20.98;;
50591;SDS011;36548;50.506;30.834;2023-04-01T01:53:06;24.35;;;19.53;;
50591;SDS011;36548;50.506;30.834;2023-04-01T01:54:20;23.43;;;18.58;;
50591;SDS011;36548;50.506;30.834;2023-04-01T01:55:31;20.88;;;18.52;;
50591;SDS011;36548;50.506;30.834;2023-04-01T01:56:44;22.35;;;17.85;;
50591;SDS011;36548;50.506;30.834;2023-04-01T01:58:05;22.72;;;17.48;;
50591;SDS011;36548;50.506;30.834;2023-04-01T01:59:25;19.72;;;16.62;;
50591;SDS011;36548;50.506;30.834;2023-04-01T02:00:37;18.37;;;16.08;;
50591;SDS011;36548;50.506;30.834;2023-04-01T02:01:55;17.97;;;15.88;;
50591;SDS011;36548;50.506;30.834;2023-04-01T02:03:05;18.02;;;15.72;;
50591;SDS011;36548;50.506;30.834;2023-04-01T02:04:22;16.60;;;14.37;;
50591;SDS011;36548;50.506;30.834;2023-04-01T02:05:31;15.52;;;13.70;;
50591;SDS011;36548;50.506;30.834;2023-04-01T02:06:52;14.50;;;12.67;;
50591;SDS011;36548;50.506;30.834;2023-04-01T02:08:02;15.78;;;13.67;;
50591;SDS011;36548;50.506;30.834;2023-04-01T02:09:19;15.18;;;13.55;;
50591;SDS011;36548;50.506;30.834;2023-04-01T02:10:30;14.90;;;13.35;;
50591;SDS011;36548;50.506;30.834;2023-04-01T02:11:49;13.68;;;12.23;;
50591;SDS011;36548;50.506;30.834;2023-04-01T02:13:13;14.95;;;12.80;;
50591;SDS011;36548;50.506;30.834;2023-04-01T02:14:54;15.00;;;13.43;;
50591;SDS011;36548;50.506;30.834;2023-04-01T02:16:13;15.35;;;13.85;;
50591;SDS011;36548;50.506;30.834;2023-04-01T02:17:29;16.25;;;14.25;;
50591;SDS011;36548;50.506;30.834;2023-04-01T02:18:41;17.00;;;15.30;;
50591;SDS011;36548;50.506;30.834;2023-04-01T02:19:58;18.75;;;16.75;;
50591;SDS011;36548;50.506;30.834;2023-04-01T02:21:16;18.00;;;16.25;;
50591;SDS011;36548;50.506;30.834;2023-04-01T02:22:31;16.93;;;15.27;;
50591;SDS011;36548;50.506;30.834;2023-04-01T02:23:45;15.08;;;13.62;;
50591;SDS011;36548;50.506;30.834;2023-04-01T02:25:01;15.70;;;14.18;;
50591;SDS011;36548;50.506;30.834;2023-04-01T02:26:17;16.30;;;14.35;;
50591;SDS011;36548;50.506;30.834;2023-04-01T02:27:30;14.97;;;13.42;;
50591;SDS011;36548;50.506;30.834;2023-04-01T02:28:46;13.97;;;12.53;;
50591;SDS011;36548;50.506;30.834;2023-04-01T02:29:58;14.53;;;12.70;;
50591;SDS011;36548;50.506;30.834;2023-04-01T02:31:09;15.42;;;13.75;;
50591;SDS011;36548;50.506;30.834;2023-04-01T02:32:21;14.65;;;13.17;;
50591;SDS011;36548;50.506;30.834;2023-04-01T02:33:30;14.12;;;12.52;;
50591;SDS011;36548;50.506;30.834;2023-04-01T02:34:47;14.37;;;12.85;;
50591;SDS011;36548;50.506;30.834;2023-04-01T02:35:58;14.00;;;12.55;;
50591;SDS011;36548;50.506;30.834;2023-04-01T02:37:15;15.32;;;12.88;;
50591;SDS011;36548;50.506;30.834;2023-04-01T02:38:25;14.48;;;13.00;;
50591;SDS011;36548;50.506;30.834;2023-04-01T02:39:36;14.50;;;13.00;;
50591;SDS011;36548;50.506;30.834;2023-04-01T02:40:56;16.15;;;12.55;;
50591;SDS011;36548;50.506;30.834;2023-04-01T02:42:07;13.95;;;12.63;;
50591;SDS011;36548;50.506;30.834;2023-04-01T02:43:18;13.90;;;12.32;;
50591;SDS011;36548;50.506;30.834;2023-04-01T02:44:37;14.10;;;12.60;;
50591;SDS011;36548;50.506;30.834;2023-04-01T02:45:47;13.45;;;12.15;;
50591;SDS011;36548;50.506;30.834;2023-04-01T02:47:03;14.77;;;13.25;;
50591;SDS011;36548;50.506;30.834;2023-04-01T02:48:12;15.25;;;13.73;;
50591;SDS011;36548;50.506;30.834;2023-04-01T02:49:29;15.47;;;13.93;;
50591;SDS011;36548;50.506;30.834;2023-04-01T02:50:40;16.18;;;14.55;;
50591;SDS011;36548;50.506;30.834;2023-04-01T02:51:56;15.90;;;14.10;;
50591;SDS011;36548;50.506;30.834;2023-04-01T02:53:05;15.28;;;13.73;;
50591;SDS011;36548;50.506;30.834;2023-04-01T02:54:22;16.43;;;13.55;;
50591;SDS011;36548;50.506;30.834;2023-04-01T02:55:30;16.10;;;14.52;;
50591;SDS011;36548;50.506;30.834;2023-04-01T02:56:41;16.45;;;14.83;;
50591;SDS011;36548;50.506;30.834;2023-04-01T02:57:57;17.88;;;15.72;;
50591;SDS011;36548;50.506;30.834;2023-04-01T02:59:06;20.18;;;17.52;;
50591;SDS011;36548;50.506;30.834;2023-04-01T03:00:18;19.63;;;17.62;;
50591;SDS011;36548;50.506;30.834;2023-04-01T03:01:34;21.20;;;19.10;;
50591;SDS011;36548;50.506;30.834;2023-04-01T03:02:44;23.25;;;19.58;;
50591;SDS011;36548;50.506;30.834;2023-04-01T03:03:54;23.43;;;19.63;;
50591;SDS011;36548;50.506;30.834;2023-04-01T03:05:09;22.60;;;20.18;;
50591;SDS011;36548;50.506;30.834;2023-04-01T03:06:20;23.40;;;20.80;;
50591;SDS011;36548;50.506;30.834;2023-04-01T03:07:36;25.28;;;21.67;;
50591;SDS011;36548;50.506;30.834;2023-04-01T03:08:47;19.82;;;17.17;;
50591;SDS011;36548;50.506;30.834;2023-04-01T03:10:03;18.60;;;15.47;;
50591;SDS011;36548;50.506;30.834;2023-04-01T03:11:13;17.95;;;15.30;;
50591;SDS011;36548;50.506;30.834;2023-04-01T03:12:29;16.25;;;14.55;;
50591;SDS011;36548;50.506;30.834;2023-04-01T03:13:39;17.77;;;15.27;;
50591;SDS011;36548;50.506;30.834;2023-04-01T03:14:55;17.28;;;14.67;;
50591;SDS011;36548;50.506;30.834;2023-04-01T03:16:06;18.13;;;14.23;;
50591;SDS011;36548;50.506;30.834;2023-04-01T03:17:21;16.03;;;13.65;;
50591;SDS011;36548;50.506;30.834;2023-04-01T03:18:31;16.23;;;12.98;;
50591;SDS011;36548;50.506;30.834;2023-04-01T03:19:47;15.23;;;13.47;;
50591;SDS011;36548;50.506;30.834;2023-04-01T03:20:57;18.20;;;14.90;;
50591;SDS011;36548;50.506;30.834;2023-04-01T03:22:28;19.25;;;16.27;;
50591;SDS011;36548;50.506;30.834;2023-04-01T03:23:37;19.25;;;17.13;;
50591;SDS011;36548;50.506;30.834;2023-04-01T03:24:53;19.78;;;17.53;;
50591;SDS011;36548;50.506;30.834;2023-04-01T03:26:02;19.66;;;17.62;;
50591;SDS011;36548;50.506;30.834;2023-04-01T03:27:18;20.02;;;17.92;;
50591;SDS011;36548;50.506;30.834;2023-04-01T03:28:29;17.22;;;15.50;;
50591;SDS011;36548;50.506;30.834;2023-04-01T03:29:44;16.65;;;14.97;;
50591;SDS011;36548;50.506;30.834;2023-04-01T03:30:54;18.80;;;15.15;;
50591;SDS011;36548;50.506;30.834;2023-04-01T03:32:10;15.55;;;13.90;;
50591;SDS011;36548;50.506;30.834;2023-04-01T03:33:20;17.85;;;13.75;;
50591;SDS011;36548;50.506;30.834;2023-04-01T03:34:35;15.32;;;13.25;;
50591;SDS011;36548;50.506;30.834;2023-04-01T03:35:44;14.20;;;12.70;;
50591;SDS011;36548;50.506;30.834;2023-04-01T03:37:01;14.78;;;13.17;;
50591;SDS011;36548;50.506;30.834;2023-04-01T03:38:09;16.13;;;13.20;;
50591;SDS011;36548;50.506;30.834;2023-04-01T03:39:19;14.53;;;12.28;;
50591;SDS011;36548;50.506;30.834;2023-04-01T03:40:34;14.43;;;12.97;;
50591;SDS011;36548;50.506;30.834;2023-04-01T03:41:45;14.58;;;12.22;;
50591;SDS011;36548;50.506;30.834;2023-04-01T03:43:01;14.68;;;12.33;;
50591;SDS011;36548;50.506;30.834;2023-04-01T03:44:10;14.33;;;12.40;;
50591;SDS011;36548;50.506;30.834;2023-04-01T03:45:28;13.05;;;11.70;;
50591;SDS011;36548;50.506;30.834;2023-04-01T03:46:39;15.73;;;12.40;;
50591;SDS011;36548;50.506;30.834;2023-04-01T03:47:49;14.40;;;12.90;;
50591;SDS011;36548;50.506;30.834;2023-04-01T03:48:59;14.95;;;13.20;;
50591;SDS011;36548;50.506;30.834;2023-04-01T03:50:09;13.72;;;12.37;;
50591;SDS011;36548;50.506;30.834;2023-04-01T03:51:19;15.35;;;13.90;;
50591;SDS011;36548;50.506;30.834;2023-04-01T03:52:34;15.78;;;14.33;;
50591;SDS011;36548;50.506;30.834;2023-04-01T03:53:43;16.27;;;13.85;;
50591;SDS011;36548;50.506;30.834;2023-04-01T03:54:58;16.07;;;13.13;;
50591;SDS011;36548;50.506;30.834;2023-04-01T03:56:08;13.92;;;12.38;;
50591;SDS011;36548;50.506;30.834;2023-04-01T03:57:17;13.60;;;12.25;;
50591;SDS011;36548;50.506;30.834;2023-04-01T03:58:27;12.75;;;11.55;;
50591;SDS011;36548;50.506;30.834;2023-04-01T03:59:43;14.63;;;13.05;;
50591;SDS011;36548;50.506;30.834;2023-04-01T04:00:52;13.80;;;11.98;;
50591;SDS011;36548;50.506;30.834;2023-04-01T04:02:08;19.40;;;17.35;;
50591;SDS011;36548;50.506;30.834;2023-04-01T04:03:18;21.95;;;19.35;;
50591;SDS011;36548;50.506;30.834;2023-04-01T04:04:35;16.60;;;14.05;;
50591;SDS011;36548;50.506;30.834;2023-04-01T04:05:46;13.62;;;12.23;;
50591;SDS011;36548;50.506;30.834;2023-04-01T04:07:02;14.68;;;12.20;;
50591;SDS011;36548;50.506;30.834;2023-04-01T04:08:15;14.10;;;12.72;;
50591;SDS011;36548;50.506;30.834;2023-04-01T04:09:31;15.48;;;13.90;;
50591;SDS011;36548;50.506;30.834;2023-04-01T04:10:41;16.13;;;14.53;;
50591;SDS011;36548;50.506;30.834;2023-04-01T04:11:52;15.92;;;14.38;;
50591;SDS011;36548;50.506;30.834;2023-04-01T04:13:00;18.50;;;16.57;;
50591;SDS011;36548;50.506;30.834;2023-04-01T04:14:15;74.32;;;66.73;;
50591;SDS011;36548;50.506;30.834;2023-04-01T04:15:27;26.30;;;23.50;;
50591;SDS011;36548;50.506;30.834;2023-04-01T04:16:43;21.73;;;19.40;;
50591;SDS011;36548;50.506;30.834;2023-04-01T04:17:51;21.73;;;18.95;;
50591;SDS011;36548;50.506;30.834;2023-04-01T04:19:30;19.52;;;17.48;;
50591;SDS011;36548;50.506;30.834;2023-04-01T04:20:43;17.05;;;15.25;;
50591;SDS011;36548;50.506;30.834;2023-04-01T04:22:06;14.97;;;13.22;;
50591;SDS011;36548;50.506;30.834;2023-04-01T04:23:16;14.48;;;12.95;;
50591;SDS011;36548;50.506;30.834;2023-04-01T04:24:34;13.90;;;11.60;;
50591;SDS011;36548;50.506;30.834;2023-04-01T04:27:16;12.63;;;11.35;;
50591;SDS011;36548;50.506;30.834;2023-04-01T04:28:28;14.07;;;11.53;;
50591;SDS011;36548;50.506;30.834;2023-04-01T04:29:44;12.58;;;11.30;;
50591;SDS011;36548;50.506;30.834;2023-04-01T04:30:54;12.30;;;11.00;;
50591;SDS011;36548;50.506;30.834;2023-04-01T04:32:09;12.03;;;10.63;;
50591;SDS011;36548;50.506;30.834;2023-04-01T04:33:19;11.55;;;10.40;;
50591;SDS011;36548;50.506;30.834;2023-04-01T04:34:28;13.13;;;11.70;;
50591;SDS011;36548;50.506;30.834;2023-04-01T04:35:39;13.03;;;11.40;;
50591;SDS011;36548;50.506;30.834;2023-04-01T04:36:49;13.37;;;11.67;;
50591;SDS011;36548;50.506;30.834;2023-04-01T04:38:05;11.92;;;10.70;;
50591;SDS011;36548;50.506;30.834;2023-04-01T04:39:14;13.03;;;11.12;;
50591;SDS011;36548;50.506;30.834;2023-04-01T04:40:31;13.52;;;11.73;;
50591;SDS011;36548;50.506;30.834;2023-04-01T04:41:40;13.12;;;11.77;;
50591;SDS011;36548;50.506;30.834;2023-04-01T04:42:57;13.05;;;11.75;;
50591;SDS011;36548;50.506;30.834;2023-04-01T04:44:06;13.73;;;12.17;;
50591;SDS011;36548;50.506;30.834;2023-04-01T04:45:15;12.58;;;11.27;;
50591;SDS011;36548;50.506;30.834;2023-04-01T04:46:30;13.02;;;11.65;;
50591;SDS011;36548;50.506;30.834;2023-04-01T04:47:42;11.70;;;10.50;;
50591;SDS011;36548;50.506;30.834;2023-04-01T04:48:57;12.97;;;11.03;;
50591;SDS011;36548;50.506;30.834;2023-04-01T04:50:08;13.55;;;12.15;;
50591;SDS011;36548;50.506;30.834;2023-04-01T04:51:26;15.18;;;13.57;;
50591;SDS011;36548;50.506;30.834;2023-04-01T04:52:36;15.13;;;13.62;;
50591;SDS011;36548;50.506;30.834;2023-04-01T04:53:46;15.95;;;14.37;;
50591;SDS011;36548;50.506;30.834;2023-04-01T04:55:01;17.53;;;15.25;;
50591;SDS011;36548;50.506;30.834;2023-04-01T04:56:12;16.40;;;13.27;;
50591;SDS011;36548;50.506;30.834;2023-04-01T04:57:27;13.70;;;12.30;;
50591;SDS011;36548;50.506;30.834;2023-04-01T04:58:37;14.58;;;12.37;;
50591;SDS011;36548;50.506;30.834;2023-04-01T04:59:54;13.65;;;11.90;;
50591;SDS011;36548;50.506;30.834;2023-04-01T05:01:22;12.23;;;11.03;;
50591;SDS011;36548;50.506;30.834;2023-04-01T05:02:38;12.75;;;10.95;;
50591;SDS011;36548;50.506;30.834;2023-04-01T05:03:49;12.07;;;10.87;;
50591;SDS011;36548;50.506;30.834;2023-04-01T05:05:06;16.30;;;11.15;;
50591;SDS011;36548;50.506;30.834;2023-04-01T05:06:17;11.90;;;10.70;;
50591;SDS011;36548;50.506;30.834;2023-04-01T05:07:34;12.08;;;10.57;;
50591;SDS011;36548;50.506;30.834;2023-04-01T05:08:44;11.28;;;10.14;;
50591;SDS011;36548;50.506;30.834;2023-04-01T05:11:03;13.03;;;10.37;;
50591;SDS011;36548;50.506;30.834;2023-04-01T05:12:21;13.75;;;11.27;;
50591;SDS011;36548;50.506;30.834;2023-04-01T05:13:39;12.10;;;10.67;;
50591;SDS011;36548;50.506;30.834;2023-04-01T05:14:56;12.05;;;10.72;;
50591;SDS011;36548;50.506;30.834;2023-04-01T05:16:13;12.03;;;10.75;;
50591;SDS011;36548;50.506;30.834;2023-04-01T05:17:50;12.77;;;11.43;;
50591;SDS011;36548;50.506;30.834;2023-04-01T05:19:00;13.75;;;11.85;;
50591;SDS011;36548;50.506;30.834;2023-04-01T05:20:16;13.63;;;12.02;;
50591;SDS011;36548;50.506;30.834;2023-04-01T05:21:25;13.50;;;12.10;;
50591;SDS011;36548;50.506;30.834;2023-04-01T05:22:35;14.68;;;13.18;;
50591;SDS011;36548;50.506;30.834;2023-04-01T05:23:50;15.48;;;12.68;;
50591;SDS011;36548;50.506;30.834;2023-04-01T05:25:01;14.30;;;12.90;;
50591;SDS011;36548;50.506;30.834;2023-04-01T05:26:16;14.68;;;13.07;;
50591;SDS011;36548;50.506;30.834;2023-04-01T05:27:25;15.45;;;11.92;;
50591;SDS011;36548;50.506;30.834;2023-04-01T05:28:40;14.97;;;11.87;;
50591;SDS011;36548;50.506;30.834;2023-04-01T05:29:51;13.48;;;11.58;;
50591;SDS011;36548;50.506;30.834;2023-04-01T05:31:53;12.57;;;11.03;;
50591;SDS011;36548;50.506;30.834;2023-04-01T05:33:09;13.35;;;11.32;;
50591;SDS011;36548;50.506;30.834;2023-04-01T05:34:19;11.45;;;10.35;;
50591;SDS011;36548;50.506;30.834;2023-04-01T05:35:35;11.82;;;10.55;;
50591;SDS011;36548;50.506;30.834;2023-04-01T05:36:45;11.45;;;10.25;;
50591;SDS011;36548;50.506;30.834;2023-04-01T05:38:00;11.88;;;10.67;;
50591;SDS011;36548;50.506;30.834;2023-04-01T05:39:10;13.35;;;11.95;;
50591;SDS011;36548;50.506;30.834;2023-04-01T05:40:27;12.25;;;11.05;;
50591;SDS011;36548;50.506;30.834;2023-04-01T05:41:37;13.60;;;12.15;;
50591;SDS011;36548;50.506;30.834;2023-04-01T05:42:54;12.37;;;11.17;;
50591;SDS011;36548;50.506;30.834;2023-04-01T05:44:06;13.40;;;12.00;;
50591;SDS011;36548;50.506;30.834;2023-04-01T05:45:21;13.12;;;11.92;;
50591;SDS011;36548;50.506;30.834;2023-04-01T05:46:31;12.80;;;11.50;;
50591;SDS011;36548;50.506;30.834;2023-04-01T05:47:46;12.12;;;10.90;;
50591;SDS011;36548;50.506;30.834;2023-04-01T05:48:58;11.25;;;10.13;;
50591;SDS011;36548;50.506;30.834;2023-04-01T05:50:19;12.60;;;11.30;;
50591;SDS011;36548;50.506;30.834;2023-04-01T05:51:28;13.32;;;10.68;;
50591;SDS011;36548;50.506;30.834;2023-04-01T05:52:38;11.08;;;9.77;;
50591;SDS011;36548;50.506;30.834;2023-04-01T05:53:55;11.15;;;9.75;;
50591;SDS011;36548;50.506;30.834;2023-04-01T05:55:05;11.47;;;10.02;;
50591;SDS011;36548;50.506;30.834;2023-04-01T05:56:21;12.52;;;10.32;;
50591;SDS011;36548;50.506;30.834;2023-04-01T05:57:32;11.40;;;10.20;;
50591;SDS011;36548;50.506;30.834;2023-04-01T05:58:50;11.32;;;10.02;;
50591;SDS011;36548;50.506;30.834;2023-04-01T06:00:00;11.85;;;10.70;;
50591;SDS011;36548;50.506;30.834;2023-04-01T06:01:15;13.43;;;11.88;;
50591;SDS011;36548;50.506;30.834;2023-04-01T06:02:24;13.47;;;12.10;;
50591;SDS011;36548;50.506;30.834;2023-04-01T06:03:41;15.10;;;13.47;;
50591;SDS011;36548;50.506;30.834;2023-04-01T06:05:01;14.80;;;13.30;;
50591;SDS011;36548;50.506;30.834;2023-04-01T06:06:29;15.32;;;13.90;;
50591;SDS011;36548;50.506;30.834;2023-04-01T06:07:41;16.42;;;14.73;;
50591;SDS011;36548;50.506;30.834;2023-04-01T06:08:58;16.43;;;14.83;;
50591;SDS011;36548;50.506;30.834;2023-04-01T06:10:19;15.80;;;14.17;;
50591;SDS011;36548;50.506;30.834;2023-04-01T06:24:13;13.80;;;11.47;;
50591;SDS011;36548;50.506;30.834;2023-04-01T06:25:36;12.67;;;11.30;;
50591;SDS011;36548;50.506;30.834;2023-04-01T06:29:55;13.05;;;11.10;;
50591;SDS011;36548;50.506;30.834;2023-04-01T06:34:33;14.42;;;12.17;;
50591;SDS011;36548;50.506;30.834;2023-04-01T06:35:53;12.67;;;11.37;;
50591;SDS011;36548;50.506;30.834;2023-04-01T06:46:20;16.12;;;13.33;;
50591;SDS011;36548;50.506;30.834;2023-04-01T06:47:53;13.18;;;11.83;;
50591;SDS011;36548;50.506;30.834;2023-04-01T06:54:27;13.08;;;11.10;;
50591;SDS011;36548;50.506;30.834;2023-04-01T06:55:46;11.62;;;9.78;;
50591;SDS011;36548;50.506;30.834;2023-04-01T06:57:31;11.25;;;9.17;;
50591;SDS011;36548;50.506;30.834;2023-04-01T06:58:51;13.84;;;12.42;;
50591;SDS011;36548;50.506;30.834;2023-04-01T07:00:03;27.03;;;24.25;;
50591;SDS011;36548;50.506;30.834;2023-04-01T07:01:26;19.83;;;17.60;;
50591;SDS011;36548;50.506;30.834;2023-04-01T07:02:48;16.12;;;13.12;;
50591;SDS011;36548;50.506;30.834;2023-04-01T07:05:30;13.78;;;12.25;;
50591;SDS011;36548;50.506;30.834;2023-04-01T07:06:48;14.58;;;11.60;;
50591;SDS011;36548;50.506;30.834;2023-04-01T07:08:04;15.00;;;12.45;;
50591;SDS011;36548;50.506;30.834;2023-04-01T07:09:27;14.95;;;13.43;;
50591;SDS011;36548;50.506;30.834;2023-04-01T07:11:26;13.87;;;12.45;;
50591;SDS011;36548;50.506;30.834;2023-04-01T07:13:25;14.38;;;12.90;;
50591;SDS011;36548;50.506;30.834;2023-04-01T07:14:43;16.25;;;14.50;;
50591;SDS011;36548;50.506;30.834;2023-04-01T07:15:58;17.08;;;15.07;;
50591;SDS011;36548;50.506;30.834;2023-04-01T07:18:34;18.17;;;15.70;;
50591;SDS011;36548;50.506;30.834;2023-04-01T07:19:59;17.63;;;15.82;;
50591;SDS011;36548;50.506;30.834;2023-04-01T07:21:23;15.93;;;12.92;;
50591;SDS011;36548;50.506;30.834;2023-04-01T07:22:48;13.17;;;11.78;;
50591;SDS011;36548;50.506;30.834;2023-04-01T07:24:05;12.25;;;10.75;;
50591;SDS011;36548;50.506;30.834;2023-04-01T07:27:45;12.60;;;10.65;;
50591;SDS011;36548;50.506;30.834;2023-04-01T07:29:01;13.92;;;11.47;;
50591;SDS011;36548;50.506;30.834;2023-04-01T07:30:21;13.15;;;10.95;;
50591;SDS011;36548;50.506;30.834;2023-04-01T07:33:28;12.85;;;11.28;;
50591;SDS011;36548;50.506;30.834;2023-04-01T07:40:40;22.10;;;19.50;;
50591;SDS011;36548;50.506;30.834;2023-04-01T07:43:49;22.70;;;20.32;;
50591;SDS011;36548;50.506;30.834;2023-04-01T07:55:45;31.45;;;27.07;;
50591;SDS011;36548;50.506;30.834;2023-04-01T08:06:20;23.53;;;19.45;;
50591;SDS011;36548;50.506;30.834;2023-04-01T08:07:50;23.60;;;18.63;;
50591;SDS011;36548;50.506;30.834;2023-04-01T08:15:28;30.57;;;24.70;;
50591;SDS011;36548;50.506;30.834;2023-04-01T08:18:52;35.20;;;25.70;;
50591;SDS011;36548;50.506;30.834;2023-04-01T08:21:32;34.40;;;29.37;;
50591;SDS011;36548;50.506;30.834;2023-04-01T08:22:57;36.30;;;28.63;;
50591;SDS011;36548;50.506;30.834;2023-04-01T08:24:35;33.43;;;24.47;;
50591;SDS011;36548;50.506;30.834;2023-04-01T08:30:28;35.25;;;27.05;;
50591;SDS011;36548;50.506;30.834;2023-04-01T08:31:53;34.18;;;24.70;;
50591;SDS011;36548;50.506;30.834;2023-04-01T08:34:42;30.33;;;20.45;;
50591;SDS011;36548;50.506;30.834;2023-04-01T08:37:20;26.00;;;18.62;;
50591;SDS011;36548;50.506;30.834;2023-04-01T08:38:52;29.55;;;20.25;;
50591;SDS011;36548;50.506;30.834;2023-04-01T08:40:16;29.58;;;20.13;;
50591;SDS011;36548;50.506;30.834;2023-04-01T08:41:41;30.15;;;20.72;;
50591;SDS011;36548;50.506;30.834;2023-04-01T08:51:46;39.87;;;28.32;;
50591;SDS011;36548;50.506;30.834;2023-04-01T08:53:14;40.17;;;29.20;;
50591;SDS011;36548;50.506;30.834;2023-04-01T09:01:37;44.87;;;29.02;;
50591;SDS011;36548;50.506;30.834;2023-04-01T09:04:26;42.50;;;31.05;;
50591;SDS011;36548;50.506;30.834;2023-04-01T09:12:59;37.50;;;29.45;;
50591;SDS011;36548;50.506;30.834;2023-04-01T09:35:23;26.42;;;21.73;;
50591;SDS011;36548;50.506;30.834;2023-04-01T09:38:03;24.93;;;20.40;;
50591;SDS011;36548;50.506;30.834;2023-04-01T09:41:30;23.05;;;18.43;;
50591;SDS011;36548;50.506;30.834;2023-04-01T09:43:04;25.32;;;17.67;;
50591;SDS011;36548;50.506;30.834;2023-04-01T09:44:23;22.25;;;19.37;;
50591;SDS011;36548;50.506;30.834;2023-04-01T09:47:55;21.50;;;18.23;;
50591;SDS011;36548;50.506;30.834;2023-04-01T09:49:26;23.98;;;19.63;;
50591;SDS011;36548;50.506;30.834;2023-04-01T09:50:42;21.18;;;17.62;;
50591;SDS011;36548;50.506;30.834;2023-04-01T10:00:15;19.75;;;17.07;;
50591;SDS011;36548;50.506;30.834;2023-04-01T10:26:07;22.13;;;16.53;;
50591;SDS011;36548;50.506;30.834;2023-04-01T10:30:50;23.77;;;18.07;;
50591;SDS011;36548;50.506;30.834;2023-04-01T10:32:09;20.23;;;15.08;;
50591;SDS011;36548;50.506;30.834;2023-04-01T10:35:23;17.88;;;14.28;;
50591;SDS011;36548;50.506;30.834;2023-04-01T10:36:48;18.88;;;16.83;;
50591;SDS011;36548;50.506;30.834;2023-04-01T10:38:19;20.10;;;17.30;;
50591;SDS011;36548;50.506;30.834;2023-04-01T10:58:46;15.85;;;14.18;;
50591;SDS011;36548;50.506;30.834;2023-04-01T11:02:12;14.33;;;11.92;;
50591;SDS011;36548;50.506;30.834;2023-04-01T11:05:51;15.07;;;11.50;;
50591;SDS011;36548;50.506;30.834;2023-04-01T11:08:57;12.47;;;11.10;;
50591;SDS011;36548;50.506;30.834;2023-04-01T11:14:52;16.90;;;12.72;;
50591;SDS011;36548;50.506;30.834;2023-04-01T11:16:18;13.32;;;11.03;;
50591;SDS011;36548;50.506;30.834;2023-04-01T11:23:54;9.80;;;8.75;;
50591;SDS011;36548;50.506;30.834;2023-04-01T11:31:49;8.30;;;7.10;;
50591;SDS011;36548;50.506;30.834;2023-04-01T11:33:19;10.00;;;8.00;;
50591;SDS011;36548;50.506;30.834;2023-04-01T11:43:01;10.15;;;8.28;;
50591;SDS011;36548;50.506;30.834;2023-04-01T11:44:28;10.80;;;7.95;;
50591;SDS011;36548;50.506;30.834;2023-04-01T11:45:58;10.18;;;8.27;;
50591;SDS011;36548;50.506;30.834;2023-04-01T11:50:29;9.20;;;8.15;;
50591;SDS011;36548;50.506;30.834;2023-04-01T11:55:06;10.60;;;8.63;;
50591;SDS011;36548;50.506;30.834;2023-04-01T11:58:41;9.40;;;8.25;;
50591;SDS011;36548;50.506;30.834;2023-04-01T12:08:00;9.20;;;7.92;;
50591;SDS011;36548;50.506;30.834;2023-04-01T12:09:19;8.60;;;7.45;;
50591;SDS011;36548;50.506;30.834;2023-04-01T12:10:47;8.07;;;7.27;;
50591;SDS011;36548;50.506;30.834;2023-04-01T12:16:57;8.13;;;6.38;;
50591;SDS011;36548;50.506;30.834;2023-04-01T12:18:37;8.30;;;6.50;;
50591;SDS011;36548;50.506;30.834;2023-04-01T12:19:51;8.98;;;7.38;;
50591;SDS011;36548;50.506;30.834;2023-04-01T12:38:17;6.25;;;5.20;;
50591;SDS011;36548;50.506;30.834;2023-04-01T12:39:44;6.70;;;6.00;;
50591;SDS011;36548;50.506;30.834;2023-04-01T12:50:28;5.47;;;4.22;;
50591;SDS011;36548;50.506;30.834;2023-04-01T12:52:09;6.00;;;4.75;;
50591;SDS011;36548;50.506;30.834;2023-04-01T12:55:18;6.25;;;4.10;;
50591;SDS011;36548;50.506;30.834;2023-04-01T12:58:20;4.75;;;4.00;;
50591;SDS011;36548;50.506;30.834;2023-04-01T13:12:10;5.22;;;3.93;;
50591;SDS011;36548;50.506;30.834;2023-04-01T13:16:23;4.60;;;3.45;;
50591;SDS011;36548;50.506;30.834;2023-04-01T13:17:51;5.30;;;3.32;;
50591;SDS011;36548;50.506;30.834;2023-04-01T13:19:37;4.20;;;3.07;;